createdAt,value
2023-05-24T16:18:47.020Z,6.3
2023-05-24T16:19:46.738Z,7.1
2023-05-24T16:20:46.834Z,6.8
2023-05-24T16:21:46.504Z,6.1
2023-05-24T16:22:46.502Z,6.3
2023-05-24T16:23:46.547Z,6.5
2023-05-24T16:24:46.593Z,6.6
2023-05-24T16:25:46.581Z,6.4
2023-05-24T16:26:46.526Z,6.8
2023-05-24T16:27:46.498Z,6.9
2023-05-24T16:28:46.576Z,6.9
2023-05-24T16:29:46.594Z,6.4
2023-05-24T16:30:46.666Z,6.3
2023-05-24T16:31:46.489Z,5.8
2023-05-24T16:32:46.536Z,6.2
2023-05-24T16:33:46.625Z,5.8
2023-05-24T16:35:46.486Z,6.5
2023-05-24T16:36:46.504Z,6.2
2023-05-24T16:37:46.496Z,6.0
2023-05-24T16:38:46.487Z,6.1
2023-05-24T16:39:46.509Z,5.9
2023-05-24T16:40:46.519Z,6.2
2023-05-24T16:41:46.654Z,6.4
2023-05-24T16:42:46.513Z,6.5
2023-05-24T16:43:46.477Z,6.5
2023-05-24T16:44:46.549Z,6.4
2023-05-24T16:45:46.624Z,6.9
2023-05-24T16:46:46.727Z,6.9
2023-05-24T16:47:46.594Z,7.1
2023-05-24T16:48:46.535Z,6.3
2023-05-24T16:49:46.474Z,6.6
2023-05-24T16:50:46.472Z,6.6
2023-05-24T16:51:46.531Z,7.1
2023-05-24T16:52:46.607Z,6.5
2023-05-24T16:53:46.510Z,6.9
2023-05-24T16:54:46.433Z,7.3
2023-05-24T16:55:46.468Z,6.3
2023-05-24T16:56:46.496Z,6.5
2023-05-24T16:57:46.492Z,7.1
2023-05-24T16:58:46.491Z,6.4
2023-05-24T16:59:47.349Z,7.0
2023-05-24T17:00:46.441Z,6.2
2023-05-24T17:01:46.517Z,6.1
2023-05-24T17:02:46.488Z,6.2
2023-05-24T17:03:46.723Z,6.3
2023-05-24T17:04:46.429Z,6.7
2023-05-24T17:05:46.434Z,6.9
2023-05-24T17:06:46.496Z,6.2
2023-05-24T17:07:46.461Z,6.4
2023-05-24T17:08:46.524Z,8.0
2023-05-24T17:09:46.468Z,6.3
2023-05-24T17:10:46.757Z,6.8
2023-05-24T17:11:47.111Z,6.3
2023-05-24T17:12:46.454Z,6.8
2023-05-24T17:13:46.417Z,6.8
2023-05-24T17:14:46.585Z,7.2
2023-05-24T17:15:46.533Z,7.0
2023-05-24T17:16:46.634Z,6.2
2023-05-24T17:17:46.447Z,6.7
2023-05-24T17:18:46.437Z,6.6
2023-05-24T17:19:46.459Z,6.8
2023-05-24T17:20:46.825Z,6.5
2023-05-24T17:21:46.450Z,6.6
2023-05-24T17:22:46.448Z,6.7
2023-05-24T17:23:46.422Z,6.5
2023-05-24T17:24:46.395Z,6.2
2023-05-24T17:25:46.407Z,6.2
2023-05-24T17:26:46.464Z,7.0
2023-05-24T17:27:46.414Z,6.7
2023-05-24T17:28:46.425Z,6.6
2023-05-24T17:29:46.419Z,6.1
2023-05-24T17:30:46.426Z,7.0
2023-05-24T17:31:46.466Z,5.9
2023-05-24T17:32:46.457Z,6.4
2023-05-24T17:33:46.430Z,6.7
2023-05-24T17:34:46.417Z,6.2
2023-05-24T17:35:46.389Z,6.1
2023-05-24T17:36:46.564Z,6.4
2023-05-24T17:37:46.418Z,6.5
2023-05-24T17:38:46.362Z,6.7
2023-05-24T17:39:46.380Z,6.7
2023-05-24T17:40:46.443Z,7.0
2023-05-24T17:41:46.609Z,7.3
2023-05-24T17:42:46.382Z,6.7
2023-05-24T17:43:46.422Z,6.4
2023-05-24T17:44:46.378Z,6.5
2023-05-24T17:45:46.545Z,6.8
2023-05-24T17:46:46.446Z,7.1
2023-05-24T17:47:46.706Z,6.7
2023-05-24T17:48:46.412Z,7.1
2023-05-24T17:49:46.431Z,6.3
2023-05-24T17:50:46.419Z,6.3
2023-05-24T17:51:46.360Z,6.7
2023-05-24T17:52:46.474Z,6.1
2023-05-24T17:53:46.446Z,6.6
2023-05-24T17:54:46.385Z,7.1
2023-05-24T17:55:46.380Z,6.4
2023-05-24T17:56:46.357Z,7.0
2023-05-24T17:57:47.392Z,6.4
2023-05-24T17:58:47.700Z,7.1
2023-05-24T17:59:46.400Z,6.5
2023-05-24T18:00:46.357Z,7.2
2023-05-24T18:01:46.499Z,6.3
2023-05-24T18:02:46.470Z,6.7
2023-05-24T18:03:46.370Z,6.9
2023-05-24T18:04:46.441Z,7.0
2023-05-24T18:05:46.360Z,7.0
2023-05-24T18:06:46.383Z,6.8
2023-05-24T18:07:46.331Z,6.5
2023-05-24T18:08:46.364Z,6.7
2023-05-24T18:09:46.594Z,6.7
2023-05-24T18:10:46.377Z,6.9
2023-05-24T18:11:46.353Z,6.8
2023-05-24T18:12:46.352Z,6.3
2023-05-24T18:13:46.361Z,7.1
2023-05-24T18:14:46.448Z,7.4
2023-05-24T18:15:46.407Z,6.7
2023-05-24T18:16:46.399Z,6.9
2023-05-24T18:17:46.538Z,6.8
2023-05-24T18:18:46.331Z,6.2
2023-05-24T18:19:46.334Z,6.5
2023-05-24T18:20:46.628Z,7.0
2023-05-24T18:21:46.329Z,6.7
2023-05-24T18:22:46.349Z,6.6
2023-05-24T18:23:46.317Z,6.9
2023-05-24T18:24:46.320Z,6.9
2023-05-24T18:25:46.457Z,7.2
2023-05-24T18:26:47.356Z,7.0
2023-05-24T18:27:46.322Z,6.6
2023-05-24T18:28:46.312Z,6.7
2023-05-24T18:29:46.361Z,7.7
2023-05-24T18:30:46.332Z,7.0
2023-05-24T18:31:46.700Z,7.2
2023-05-24T18:33:03.594Z,7.4
2023-05-24T18:33:46.319Z,6.4
2023-05-24T18:34:46.358Z,8.0
2023-05-24T18:35:46.359Z,6.7
2023-05-24T18:36:46.350Z,7.3
2023-05-24T18:37:46.360Z,6.8
2023-05-24T18:38:46.640Z,6.8
2023-05-24T18:39:46.298Z,7.1
2023-05-24T18:40:46.342Z,6.5
2023-05-24T18:41:46.397Z,7.1
2023-05-24T18:42:46.441Z,7.4
2023-05-24T18:43:59.873Z,7.1
2023-05-24T18:44:46.381Z,7.5
2023-05-24T18:45:47.178Z,6.8
2023-05-24T18:46:46.356Z,7.3
2023-05-24T18:47:46.453Z,7.5
2023-05-24T18:48:46.327Z,7.6
2023-05-24T18:49:46.484Z,7.8
2023-05-24T18:50:46.352Z,7.0
2023-05-24T18:51:46.327Z,7.4
2023-05-24T18:52:46.650Z,7.5
2023-05-24T18:53:46.420Z,7.3
2023-05-24T18:54:46.732Z,7.5
2023-05-24T18:55:46.353Z,7.2
2023-05-24T18:56:47.050Z,7.6
2023-05-24T18:57:46.437Z,8.0
2023-05-24T18:58:46.499Z,8.0
2023-05-24T18:59:47.798Z,7.2
2023-05-24T19:00:46.504Z,7.2
2023-05-24T19:01:46.329Z,7.4
2023-05-24T19:02:46.546Z,8.4
2023-05-24T19:03:46.309Z,7.0
2023-05-24T19:04:46.348Z,7.4
2023-05-24T19:05:46.618Z,7.3
2023-05-24T19:06:46.476Z,7.4
2023-05-24T19:07:55.187Z,8.4
2023-05-24T19:08:46.251Z,7.1
2023-05-24T19:09:46.305Z,8.3
2023-05-24T19:10:46.275Z,7.2
2023-05-24T19:12:11.424Z,8.2
2023-05-24T19:12:52.570Z,8.3
2023-05-24T19:13:46.255Z,7.2
2023-05-24T19:14:46.962Z,7.8
2023-05-24T19:15:46.870Z,7.7
2023-05-24T19:16:46.384Z,7.3
2023-05-24T19:17:46.304Z,7.2
2023-05-24T19:18:46.530Z,7.3
2023-05-24T19:19:46.265Z,7.5
2023-05-24T19:20:46.238Z,7.8
2023-05-24T19:21:46.331Z,8.9
2023-05-24T19:22:46.241Z,7.4
2023-05-24T19:23:46.432Z,7.1
2023-05-24T19:24:46.937Z,7.8
2023-05-24T19:25:46.421Z,7.7
2023-05-24T19:26:46.760Z,7.6
2023-05-24T19:27:58.505Z,7.4
2023-05-24T19:28:46.243Z,8.0
2023-05-24T19:29:46.235Z,8.1
2023-05-24T19:30:46.351Z,8.0
2023-05-24T19:31:46.315Z,7.3
2023-05-24T19:32:46.251Z,8.2
2023-05-24T19:33:59.117Z,7.6
2023-05-24T19:34:46.237Z,7.3
2023-05-24T19:35:46.367Z,7.6
2023-05-24T19:36:46.301Z,7.9
2023-05-24T19:37:46.220Z,8.1
2023-05-24T19:38:46.214Z,9.2
2023-05-24T19:39:46.269Z,8.0
2023-05-24T19:40:46.226Z,8.0
2023-05-24T19:41:46.492Z,8.6
2023-05-24T19:42:46.242Z,8.4
2023-05-24T19:43:46.254Z,8.1
2023-05-24T19:44:46.197Z,8.9
2023-05-24T19:45:46.380Z,7.8
2023-05-24T19:46:46.223Z,8.4
2023-05-24T19:47:46.237Z,9.1
2023-05-24T19:48:46.229Z,8.5
2023-05-24T19:49:46.372Z,8.6
2023-05-24T19:50:48.566Z,8.7
2023-05-24T19:51:46.359Z,8.2
2023-05-24T19:52:46.217Z,8.7
2023-05-24T19:53:46.210Z,8.3
2023-05-24T19:54:46.291Z,8.3
2023-05-24T19:55:46.352Z,9.7
2023-05-24T19:56:46.215Z,9.6
2023-05-24T19:57:46.232Z,9.3
2023-05-24T19:58:46.179Z,9.1
2023-05-24T19:59:46.202Z,8.6
2023-05-24T20:00:46.513Z,8.6
2023-05-24T20:01:46.284Z,9.1
2023-05-24T20:02:46.215Z,8.5
2023-05-24T20:03:46.270Z,8.1
2023-05-24T20:04:46.223Z,8.9
2023-05-24T20:05:46.241Z,8.6
2023-05-24T20:06:46.277Z,9.2
2023-05-24T20:07:46.430Z,8.6
2023-05-24T20:08:46.182Z,7.8
2023-05-24T20:09:46.184Z,8.4
2023-05-24T20:10:46.165Z,8.8
2023-05-24T20:11:46.308Z,9.5
2023-05-24T20:12:46.188Z,9.6
2023-05-24T20:13:46.197Z,9.9
2023-05-24T20:14:46.179Z,9.1
2023-05-24T20:15:46.192Z,9.6
2023-05-24T20:16:46.239Z,9.4
2023-05-24T20:17:46.168Z,9.6
2023-05-24T20:18:46.219Z,9.3
2023-05-24T20:19:46.130Z,9.0
2023-05-24T20:20:46.192Z,9.8
2023-05-24T20:21:46.164Z,9.6
2023-05-24T20:22:46.274Z,9.2
2023-05-24T20:23:46.159Z,9.6
2023-05-24T20:24:46.160Z,8.8
2023-05-24T20:25:46.140Z,9.3
2023-05-24T20:26:46.150Z,9.3
2023-05-24T20:27:46.254Z,9.4
2023-05-24T20:28:46.128Z,9.2
2023-05-24T20:29:46.130Z,9.2
2023-05-24T20:30:46.229Z,10.3
2023-05-24T20:31:46.272Z,10.2
2023-05-24T20:32:46.279Z,9.7
2023-05-24T20:33:46.328Z,9.7
2023-05-24T20:34:46.105Z,10.0
2023-05-24T20:35:46.271Z,9.9
2023-05-24T20:36:46.250Z,9.5
2023-05-24T20:37:46.170Z,9.4
2023-05-24T20:38:46.097Z,9.8
2023-05-24T20:39:46.129Z,9.1
2023-05-24T20:40:46.102Z,9.7
2023-05-24T20:41:46.126Z,10.1
2023-05-24T20:42:46.148Z,9.7
2023-05-24T20:43:46.181Z,10.0
2023-05-24T20:44:46.240Z,9.6
2023-05-24T20:45:46.417Z,10.0
2023-05-24T20:46:46.098Z,9.9
2023-05-24T20:47:46.169Z,10.7
2023-05-24T20:48:46.160Z,11.2
2023-05-24T20:49:46.094Z,10.4
2023-05-24T20:50:46.116Z,11.7
2023-05-24T20:51:46.098Z,11.5
2023-05-24T20:52:46.670Z,11.7
2023-05-24T20:53:46.056Z,11.4
2023-05-24T20:54:46.111Z,11.6
2023-05-24T20:55:46.471Z,10.9
2023-05-24T20:56:46.118Z,11.5
2023-05-24T20:57:46.094Z,11.5
2023-05-24T20:58:46.180Z,11.2
2023-05-24T20:59:46.062Z,12.2
2023-05-24T21:00:46.264Z,11.8
2023-05-24T21:01:46.171Z,11.6
2023-05-24T21:02:46.187Z,13.6
2023-05-24T21:03:46.347Z,15.6
2023-05-24T21:04:46.058Z,13.6
2023-05-24T21:05:46.328Z,12.1
2023-05-24T21:06:46.299Z,12.4
2023-05-24T21:07:46.090Z,12.0
2023-05-24T21:08:46.036Z,11.9
2023-05-24T21:09:46.126Z,11.6
2023-05-24T21:10:46.067Z,11.3
2023-05-24T21:11:46.078Z,11.1
2023-05-24T21:12:46.082Z,10.8
2023-05-24T21:13:46.073Z,10.8
2023-05-24T21:14:46.118Z,11.1
2023-05-24T21:15:46.109Z,11.2
2023-05-24T21:16:46.352Z,10.6
2023-05-24T21:17:46.456Z,10.2
2023-05-24T21:18:46.065Z,10.7
2023-05-24T21:19:46.031Z,11.1
2023-05-24T21:20:46.099Z,11.2
2023-05-24T21:21:46.035Z,11.0
2023-05-24T21:22:46.038Z,11.5
2023-05-24T21:23:46.043Z,11.1
2023-05-24T21:24:46.078Z,11.7
2023-05-24T21:25:46.118Z,11.0
2023-05-24T21:26:46.067Z,12.3
2023-05-24T21:27:46.287Z,11.4
2023-05-24T21:28:46.298Z,11.3
2023-05-24T21:29:46.002Z,12.5
2023-05-24T21:30:46.204Z,11.2
2023-05-24T21:31:46.079Z,13.8
2023-05-24T21:32:46.023Z,12.7
2023-05-24T21:33:46.029Z,12.5
2023-05-24T21:34:46.042Z,13.6
2023-05-24T21:35:46.095Z,13.1
2023-05-24T21:36:46.064Z,15.0
2023-05-24T21:37:46.089Z,12.5
2023-05-24T21:38:46.017Z,13.6
2023-05-24T21:39:46.231Z,12.8
2023-05-24T21:40:46.060Z,13.5
2023-05-24T21:41:45.989Z,13.2
2023-05-24T21:42:46.212Z,13.2
2023-05-24T21:43:46.056Z,14.7
2023-05-24T21:44:46.028Z,14.6
2023-05-24T21:45:46.045Z,14.6
2023-05-24T21:46:46.056Z,14.4
2023-05-24T21:47:46.072Z,14.4
2023-05-24T21:48:46.032Z,14.0
2023-05-24T21:49:45.994Z,15.0
2023-05-24T21:50:46.049Z,13.3
2023-05-24T21:51:46.051Z,13.9
2023-05-24T21:52:46.042Z,13.8
2023-05-24T21:53:46.007Z,13.9
2023-05-24T21:54:46.017Z,13.7
2023-05-24T21:55:46.118Z,14.0
2023-05-24T21:56:45.990Z,14.3
2023-05-24T21:57:46.023Z,12.8
2023-05-24T21:58:45.981Z,13.9
2023-05-24T21:59:45.977Z,13.2
2023-05-24T22:00:46.085Z,13.8
2023-05-24T22:01:46.050Z,13.8
2023-05-24T22:02:46.097Z,13.0
2023-05-24T22:03:46.189Z,12.6
2023-05-24T22:04:45.959Z,12.9
2023-05-24T22:05:46.183Z,12.6
2023-05-24T22:06:46.011Z,13.0
2023-05-24T22:07:46.016Z,12.3
2023-05-24T22:08:45.975Z,13.1
2023-05-24T22:09:46.009Z,12.1
2023-05-24T22:10:45.977Z,11.5
2023-05-24T22:11:45.986Z,13.6
2023-05-24T22:12:46.112Z,12.9
2023-05-24T22:13:45.965Z,12.4
2023-05-24T22:14:45.941Z,12.2
2023-05-24T22:15:46.089Z,13.2
2023-05-24T22:16:45.966Z,12.6
2023-05-24T22:17:46.088Z,12.4
2023-05-24T22:18:45.999Z,12.4
2023-05-24T22:19:45.963Z,13.3
2023-05-24T22:20:45.996Z,12.9
2023-05-24T22:21:45.963Z,12.8
2023-05-24T22:22:46.017Z,12.7
2023-05-24T22:23:46.069Z,11.9
2023-05-24T22:24:45.978Z,11.6
2023-05-24T22:25:45.949Z,11.3
2023-05-24T22:26:45.910Z,11.3
2023-05-24T22:27:46.051Z,10.9
2023-05-24T22:28:45.957Z,12.0
2023-05-24T22:29:45.989Z,12.3
2023-05-24T22:30:45.960Z,11.5
2023-05-24T22:31:46.013Z,12.1
2023-05-24T22:32:46.008Z,12.3
2023-05-24T22:33:45.971Z,12.3
2023-05-24T22:34:45.999Z,11.9
2023-05-24T22:35:46.073Z,11.5
2023-05-24T22:36:46.004Z,13.0
2023-05-24T22:37:45.918Z,11.7
2023-05-24T22:38:45.956Z,11.0
2023-05-24T22:39:45.993Z,12.1
2023-05-24T22:40:46.006Z,11.0
2023-05-24T22:41:45.942Z,11.9
2023-05-24T22:42:45.968Z,11.9
2023-05-24T22:43:45.949Z,11.1
2023-05-24T22:44:45.946Z,12.0
2023-05-24T22:45:46.219Z,11.5
2023-05-24T22:46:46.231Z,10.8
2023-05-24T22:47:45.928Z,11.1
2023-05-24T22:48:45.908Z,11.1
2023-05-24T22:49:45.957Z,10.8
2023-05-24T22:50:46.040Z,11.2
2023-05-24T22:51:45.934Z,10.2
2023-05-24T22:52:45.880Z,10.6
2023-05-24T22:53:45.956Z,11.2
2023-05-24T22:54:45.961Z,10.4
2023-05-24T22:55:46.040Z,10.5
2023-05-24T22:56:45.916Z,10.9
2023-05-24T22:57:46.090Z,11.1
2023-05-24T22:58:45.861Z,10.6
2023-05-24T22:59:45.928Z,10.6
2023-05-24T23:00:46.018Z,11.1
2023-05-24T23:01:45.914Z,11.0
2023-05-24T23:02:45.974Z,11.8
2023-05-24T23:03:45.935Z,10.9
2023-05-24T23:04:45.917Z,11.1
2023-05-24T23:05:48.900Z,10.2
2023-05-24T23:06:45.927Z,11.5
2023-05-24T23:07:45.888Z,10.6
2023-05-24T23:08:46.009Z,10.7
2023-05-24T23:09:45.927Z,11.9
2023-05-24T23:10:45.894Z,11.4
2023-05-24T23:11:45.860Z,11.5
2023-05-24T23:12:45.948Z,11.6
2023-05-24T23:13:45.865Z,11.2
2023-05-24T23:14:45.842Z,11.4
2023-05-24T23:15:46.039Z,11.1
2023-05-24T23:16:46.208Z,11.1
2023-05-24T23:17:45.879Z,11.6
2023-05-24T23:18:46.062Z,10.5
2023-05-24T23:19:45.983Z,11.9
2023-05-24T23:20:45.871Z,11.8
2023-05-24T23:21:45.895Z,12.7
2023-05-24T23:22:45.863Z,12.7
2023-05-24T23:23:45.945Z,11.9
2023-05-24T23:24:45.990Z,12.8
2023-05-24T23:25:45.925Z,11.4
2023-05-24T23:26:45.904Z,12.4
2023-05-24T23:27:45.841Z,11.3
2023-05-24T23:28:45.946Z,12.6
2023-05-24T23:29:45.807Z,12.2
2023-05-24T23:30:46.110Z,12.4
2023-05-24T23:31:45.882Z,12.9
2023-05-24T23:32:46.136Z,11.6
2023-05-24T23:33:45.867Z,12.3
2023-05-24T23:34:45.837Z,12.1
2023-05-24T23:35:45.970Z,11.8
2023-05-24T23:36:45.849Z,12.8
2023-05-24T23:37:46.040Z,11.6
2023-05-24T23:38:45.803Z,12.7
2023-05-24T23:39:45.924Z,12.1
2023-05-24T23:40:45.824Z,11.0
2023-05-24T23:41:45.923Z,11.9
2023-05-24T23:42:45.858Z,11.7
2023-05-24T23:43:45.843Z,12.6
2023-05-24T23:44:45.852Z,12.2
2023-05-24T23:45:46.025Z,12.2
2023-05-24T23:46:45.877Z,12.5
2023-05-24T23:47:46.018Z,11.6
2023-05-24T23:48:45.922Z,12.9
2023-05-24T23:49:45.835Z,12.6
2023-05-24T23:50:53.951Z,11.9
2023-05-24T23:51:45.974Z,11.7
2023-05-24T23:52:45.954Z,13.0
2023-05-24T23:53:45.836Z,12.5
2023-05-24T23:54:45.867Z,12.2
2023-05-24T23:55:45.896Z,12.5
2023-05-24T23:56:45.848Z,11.8
2023-05-24T23:57:45.879Z,12.5
2023-05-24T23:58:45.776Z,12.9
2023-05-24T23:59:45.784Z,12.7
